Fort Worth Alliance Airport
KAFW : rendu visible

Aérodrome :











RETROUVEZ-NOUS SUR...

 
LOGIN :

S'inscrire | Disclaimer

   EN    FR    IT 

 









Légende :    VFR   VFR Marginal   IFR   IFR Intensif   IFR Très Intensif
Visi : 
Plafond : 
>= 8 km
>= 3000ft
5 à 8 km
1000 à 3000 ft
1500m à 5 km
500 à 1000 ft
800 à 1500m
200 à 500 ft
< 800m
< 200 ft
Symboles :   Orages  Brouillard  Fortes neiges  Fortes précipitations  Vent > 20 kt






- Altitude de l'aérodrome : 722 ft


KAFW - Fort Worth Alliance

DERNIER METAR :
  • 070053Z 16005KT 6SM BR SCT013 BKN110 OVC250 19/18 A2993 RMK AO2 RAE12 SLP129 P0000 T01940178

METARs EXPIRÉS :
  • 062353Z 19009KT 8SM -RA FEW016 BKN110 OVC250 20/17 A2994 RMK AO2 RAB49 SLP134 P0000 60000 T02000172 10217 20200 55002
  • 062253Z 19010KT 10SM SCT018 BKN100 BKN120 OVC250 21/17 A2994 RMK AO2 SLP130 T02060172
  • 062230Z 19009KT 10SM BKN019 OVC100 21/17 A2995 RMK AO2 T02060172
  • 062153Z 20012KT 10SM SCT019 BKN110 OVC250 21/17 A2995 RMK AO2 SLP135 T02110167

TAF KAFW
Valide du 07 à 00h jusqu'au 08 à 00h UTC


062320Z 0700/0724 18010KT P6SM VCSH SCT018 BKN100
TEMPO 0700/0703 -RA BKN018
FM070600 19008KT P6SM BKN025 OVC100
FM071000 19006KT P6SM OVC015
FM071600 21012KT P6SM BKN250



MET'MAP, la Météo Aéronautique d'un coup d'oeil ! - Copyright ORBIFLY Décembre 2007 - Disclaimer

ORBIFLY MET'MAP TEAM :

Programmation & Développement : Alexandra Zaïnal
Sur une idée originale de : Baudouin d'Aumeries
Assistance à la programmation : Marc-Olivier Méhu
Soutien technique & logistique : Manuel Goepfert

Contact : metmap@orbifly.com




SOURCES & CREDITS :

   NOAA       Earth
Advisory